Time;durP1;ratioP1;P1;durP2;ratioP2;P2;SDS_P1;SDS_P2;PMS_P1;PMS_P2;Temp;Humidity;BMP_temperature;BMP_pressure;BME280_temperature;BME280_humidity;BME280_pressure;Samples;Min_cycle;Max_cycle;Signal;HPM_P1;HPM_P2
2023/04/05 00:00:01;;;;;;;5.57;2.57;;;1.70;99.90;;;2.35;100.00;98777.38;4978721;28;20547;-75
2023/04/05 00:02:31;;;;;;;2.13;1.93;;;1.80;99.90;;;2.27;100.00;98781.44;4978094;28;20469;-75
2023/04/05 00:05:02;;;;;;;2.77;2.20;;;1.70;99.90;;;2.30;100.00;98773.47;4976674;28;21041;-76
2023/04/05 00:07:33;;;;;;;2.10;1.90;;;1.60;99.90;;;2.24;100.00;98774.78;4978588;28;20962;-75
2023/04/05 00:10:02;;;;;;;3.47;2.20;;;1.60;99.90;;;2.22;100.00;98776.63;4978897;28;20515;-75
2023/04/05 00:12:33;;;;;;;4.27;2.23;;;1.60;99.90;;;2.20;100.00;98772.53;4977915;28;20472;-75
2023/04/05 00:15:04;;;;;;;3.00;2.30;;;1.60;99.90;;;2.16;100.00;98771.13;4977003;28;20469;-75
2023/04/05 00:17:34;;;;;;;5.03;2.23;;;1.60;99.90;;;2.16;100.00;98771.94;4978476;28;20511;-75
2023/04/05 00:20:07;;;;;;;5.03;1.90;;;1.60;99.90;;;2.10;100.00;98756.13;4976429;28;20973;-75
2023/04/05 00:22:38;;;;;;;2.80;1.63;;;1.60;99.90;;;2.08;100.00;98752.84;4977388;28;20540;-75
2023/04/05 00:25:10;;;;;;;2.90;1.70;;;1.50;99.90;;;2.10;100.00;98759.53;4979372;28;20461;-75
2023/04/05 00:27:44;;;;;;;3.30;2.17;;;1.50;99.90;;;2.11;100.00;98753.44;4975415;28;20500;-75
2023/04/05 00:30:19;;;;;;;3.47;2.57;;;1.50;99.90;;;2.03;100.00;98760.91;4978397;28;20564;-75
2023/04/05 00:32:50;;;;;;;2.07;1.70;;;1.40;99.90;;;1.93;100.00;98754.81;4977154;28;20471;-75
2023/04/05 00:35:21;;;;;;;3.73;2.00;;;1.40;99.90;;;1.85;100.00;98754.56;4976955;28;20586;-75
2023/04/05 00:37:50;;;;;;;2.03;1.70;;;1.40;99.90;;;1.92;100.00;98761.72;4975380;28;20475;-75
2023/04/05 00:40:20;;;;;;;2.43;2.07;;;1.30;99.90;;;1.92;100.00;98754.00;4976047;28;20469;-75
2023/04/05 00:42:51;;;;;;;3.10;2.07;;;1.30;99.90;;;1.89;100.00;98755.97;4976458;28;20465;-76
2023/04/05 00:45:22;;;;;;;2.20;2.00;;;1.30;99.90;;;1.85;100.00;98757.97;4975845;28;21396;-75
2023/04/05 00:47:51;;;;;;;2.30;2.10;;;1.30;99.90;;;1.82;100.00;98753.03;4975340;28;20496;-75
2023/04/05 00:50:24;;;;;;;7.43;2.20;;;1.30;99.90;;;1.85;100.00;98762.28;4974287;28;20465;-75
2023/04/05 00:52:55;;;;;;;3.20;2.10;;;1.20;99.90;;;1.85;100.00;98754.56;4976667;28;20465;-75
2023/04/05 00:55:27;;;;;;;2.40;2.20;;;1.20;99.90;;;1.83;100.00;98752.13;4975585;28;20500;-75
2023/04/05 00:57:59;;;;;;;7.00;2.40;;;1.20;99.90;;;1.84;100.00;98751.16;4976315;28;20471;-76
2023/04/05 01:00:30;;;;;;;5.33;2.03;;;1.20;99.90;;;1.84;100.00;98743.44;4977997;28;20470;-75
2023/04/05 01:03:04;;;;;;;3.03;1.97;;;1.10;99.90;;;1.87;100.00;98747.56;4975723;28;20507;-75
2023/04/05 01:05:39;;;;;;;2.27;1.63;;;1.10;99.90;;;1.87;100.00;98743.22;4976407;28;20459;-75
2023/04/05 01:08:20;;;;;;;3.80;2.13;;;1.10;99.90;;;1.84;100.00;98740.06;4975747;28;20511;-75
2023/04/05 01:10:57;;;;;;;2.17;2.03;;;1.20;99.90;;;1.79;100.00;98739.56;4979991;28;20597;-75
2023/04/05 01:13:29;;;;;;;1.70;1.60;;;1.20;99.90;;;1.79;100.00;98737.81;4979437;28;20811;-75
2023/04/05 01:15:59;;;;;;;2.43;1.87;;;1.10;99.90;;;1.75;100.00;98735.56;4977572;28;20466;-75
2023/04/05 01:18:31;;;;;;;4.93;1.90;;;1.10;99.90;;;1.75;100.00;98731.25;4977628;28;20491;-75
2023/04/05 01:21:37;;;;;;;3.50;2.10;;;1.10;99.90;;;1.72;100.00;98731.47;4977343;28;20489;-75
2023/04/05 01:24:31;;;;;;;7.07;2.17;;;1.10;99.90;;;1.67;100.00;98732.72;4978738;28;20474;-75
2023/04/05 01:27:10;;;;;;;4.90;2.10;;;1.10;99.90;;;1.66;100.00;98726.78;4976870;28;20547;-75
2023/04/05 01:29:59;;;;;;;2.60;1.90;;;1.10;99.90;;;1.66;100.00;98731.94;4977302;28;20492;-75
2023/04/05 01:32:56;;;;;;;5.53;2.30;;;1.00;99.90;;;1.65;100.00;98724.31;4976022;28;20590;-75
2023/04/05 01:35:40;;;;;;;3.00;2.10;;;1.00;99.90;;;1.63;100.00;98727.00;4982862;28;20555;-75
2023/04/05 01:38:18;;;;;;;2.00;1.80;;;1.00;99.90;;;1.60;100.00;98729.78;4974645;28;21190;-75
2023/04/05 01:40:49;;;;;;;2.67;2.43;;;1.00;99.90;;;1.62;100.00;98721.97;4974615;28;20458;-75
2023/04/05 01:43:19;;;;;;;2.93;2.30;;;1.00;99.90;;;1.61;100.00;98722.88;4979659;28;20461;-76
2023/04/05 01:45:50;;;;;;;1.93;1.80;;;1.00;99.90;;;1.64;100.00;98717.50;4974400;28;20462;-76
2023/04/05 01:48:21;;;;;;;2.50;1.73;;;0.90;99.90;;;1.64;100.00;98717.50;4976099;28;20520;-75
2023/04/05 01:50:52;;;;;;;3.80;2.20;;;0.90;99.90;;;1.60;100.00;98721.25;4976576;28;20531;-75
2023/04/05 01:53:21;;;;;;;8.20;2.30;;;1.00;99.90;;;1.57;100.00;98721.47;4975733;28;20468;-75
2023/04/05 01:55:51;;;;;;;4.10;2.43;;;0.90;99.90;;;1.56;100.00;98712.94;4973487;28;20476;-75
2023/04/05 01:58:20;;;;;;;2.83;1.90;;;0.90;99.90;;;1.59;100.00;98714.47;4975208;28;20999;-76
2023/04/05 02:00:54;;;;;;;4.77;2.60;;;0.90;99.90;;;1.60;100.00;98709.19;4977257;28;20495;-75
2023/04/05 02:03:23;;;;;;;2.53;1.93;;;0.90;99.90;;;1.57;100.00;98709.41;4978080;28;20535;-75
2023/04/05 02:05:52;;;;;;;2.33;2.13;;;0.90;99.90;;;1.56;100.00;98712.13;4976171;28;20473;-75
2023/04/05 02:08:22;;;;;;;4.30;2.20;;;0.90;99.90;;;1.52;100.00;98712.34;4977944;28;20558;-75
2023/04/05 02:10:54;;;;;;;2.90;1.87;;;0.90;99.90;;;1.49;100.00;98709.97;4976463;28;20469;-76
2023/04/05 02:13:25;;;;;;;2.40;2.17;;;0.90;99.90;;;1.47;100.00;98703.31;4975735;28;20897;-75
2023/04/05 02:15:57;;;;;;;6.23;2.13;;;0.90;99.90;;;1.48;100.00;98700.63;4976096;28;20472;-75
2023/04/05 02:18:30;;;;;;;4.53;2.53;;;0.90;99.90;;;1.53;100.00;98701.09;4977934;28;21021;-75
2023/04/05 02:21:06;;;;;;;2.80;2.50;;;0.80;99.90;;;1.54;100.00;98701.91;4975704;28;20466;-75
2023/04/05 02:23:36;;;;;;;2.43;2.23;;;0.80;99.90;;;1.47;100.00;98696.41;4976029;28;20835;-75
2023/04/05 02:26:06;;;;;;;3.80;2.17;;;0.90;99.90;;;1.46;100.00;98692.16;4978208;28;20464;-75
2023/04/05 02:28:36;;;;;;;3.23;1.90;;;0.90;99.90;;;1.48;100.00;98698.03;4975879;28;20508;-75
2023/04/05 02:31:11;;;;;;;2.73;2.00;;;0.80;99.90;;;1.49;100.00;98693.72;4974979;28;20465;-75
2023/04/05 02:33:41;;;;;;;4.30;2.37;;;0.80;99.90;;;1.46;100.00;98693.91;4973829;28;20466;-75
2023/04/05 02:36:13;;;;;;;12.93;2.73;;;0.90;99.90;;;1.40;100.00;98692.63;4976520;28;20466;-75
2023/04/05 02:38:41;;;;;;;2.53;2.27;;;0.80;99.90;;;1.35;100.00;98691.34;4975438;28;20465;-75
2023/04/05 02:41:11;;;;;;;2.53;2.10;;;0.80;99.90;;;1.31;100.00;98684.78;4977471;28;20980;-75
2023/04/05 02:43:42;;;;;;;2.13;1.77;;;0.80;99.90;;;1.33;100.00;98688.03;4975621;28;20901;-75
2023/04/05 02:46:13;;;;;;;5.70;2.40;;;0.80;99.90;;;1.35;100.00;98687.00;4974909;28;20511;-76
2023/04/05 02:48:44;;;;;;;3.50;2.03;;;0.70;99.90;;;1.31;100.00;98685.59;4976678;28;20588;-75
2023/04/05 02:51:13;;;;;;;3.30;2.30;;;0.70;99.90;;;1.27;100.00;98683.34;4977059;28;20935;-75
2023/04/05 02:53:43;;;;;;;2.57;2.10;;;0.70;99.90;;;1.30;100.00;98685.69;4976406;28;20526;-75
2023/04/05 02:56:13;;;;;;;5.13;2.20;;;0.70;99.90;;;1.29;100.00;98684.88;4976624;28;20485;-75
2023/04/05 02:58:43;;;;;;;2.63;1.90;;;0.80;99.90;;;1.29;100.00;98689.19;4977608;28;20465;-75
2023/04/05 03:01:16;;;;;;;3.33;2.10;;;0.60;99.90;;;1.27;100.00;98689.31;4977615;28;20456;-75
2023/04/05 03:03:47;;;;;;;2.10;1.90;;;0.60;99.90;;;1.28;100.00;98679.84;4976589;28;20519;-75
2023/04/05 03:06:19;;;;;;;3.53;2.00;;;0.60;99.90;;;1.25;100.00;98686.03;4975765;28;20464;-75
2023/04/05 03:08:49;;;;;;;4.30;2.57;;;0.60;99.90;;;1.22;100.00;98683.69;4974700;28;20913;-75
2023/04/05 03:11:18;;;;;;;3.00;2.30;;;0.60;99.90;;;1.17;100.00;98683.22;4973984;28;20481;-74
2023/04/05 03:13:49;;;;;;;3.67;2.23;;;0.60;99.90;;;1.15;100.00;98685.06;4974769;28;20979;-75
2023/04/05 03:16:22;;;;;;;3.03;1.90;;;0.60;99.90;;;1.14;100.00;98675.72;4973820;28;20477;-75
2023/04/05 03:18:52;;;;;;;2.70;2.27;;;0.50;99.90;;;1.14;100.00;98672.31;4976116;28;20473;-75
2023/04/05 03:21:21;;;;;;;3.47;2.10;;;0.50;99.90;;;1.11;100.00;98668.19;4977424;28;20496;-75
2023/04/05 03:23:52;;;;;;;11.33;5.97;;;0.50;99.90;;;1.15;100.00;98668.78;4975199;28;20466;-76
2023/04/05 03:26:23;;;;;;;3.23;2.43;;;0.50;99.90;;;1.15;100.00;98673.94;4973776;28;21187;-76
2023/04/05 03:28:53;;;;;;;2.03;1.90;;;0.60;99.90;;;1.09;100.00;98664.91;4977974;28;20558;-75
2023/04/05 03:31:24;;;;;;;6.17;2.60;;;0.50;99.90;;;1.05;100.00;98672.97;4978093;28;20650;-75
2023/04/05 03:33:54;;;;;;;3.77;2.37;;;0.50;99.90;;;1.00;100.00;98670.75;4977409;28;20477;-75
2023/04/05 03:36:27;;;;;;;3.33;2.67;;;0.60;99.90;;;1.00;100.00;98670.75;4977081;28;20888;-75
2023/04/05 03:38:56;;;;;;;2.57;1.83;;;0.40;99.90;;;1.02;100.00;98661.16;4974334;28;20502;-75
2023/04/05 03:41:27;;;;;;;2.90;2.60;;;0.40;99.90;;;1.03;100.00;98670.53;4974087;28;20569;-76
2023/04/05 03:43:58;;;;;;;3.37;2.27;;;0.40;99.90;;;1.01;100.00;98668.03;4975237;28;20472;-75
2023/04/05 03:46:29;;;;;;;4.93;2.20;;;0.40;99.90;;;1.02;100.00;98669.69;4974829;28;20907;-75
2023/04/05 03:49:00;;;;;;;4.93;2.33;;;0.40;99.90;;;1.01;100.00;98672.38;4972813;28;20583;-75
2023/04/05 03:51:31;;;;;;;3.37;2.20;;;0.40;99.90;;;1.01;100.00;98677.53;4974116;28;20494;-76
2023/04/05 03:54:01;;;;;;;2.50;2.10;;;0.30;99.90;;;0.89;100.00;98684.41;4975347;28;20466;-76
2023/04/05 03:56:32;;;;;;;3.60;1.90;;;0.40;99.90;;;0.82;100.00;98677.22;4979182;28;20543;-73
2023/04/05 03:59:02;;;;;;;4.07;2.50;;;0.30;99.90;;;0.87;100.00;98682.84;4982363;28;20466;-75
2023/04/05 04:01:33;;;;;;;3.20;2.30;;;0.30;99.90;;;0.86;100.00;98679.47;4976748;28;20473;-75
2023/04/05 04:04:03;;;;;;;2.60;2.40;;;0.20;99.90;;;0.86;100.00;98678.66;4979636;28;20502;-75
2023/04/05 04:06:34;;;;;;;3.30;2.50;;;0.20;99.90;;;0.86;100.00;98670.94;4976112;28;20467;-75
2023/04/05 04:09:05;;;;;;;4.10;3.13;;;0.20;99.90;;;0.81;100.00;98668.69;4977938;28;20544;-75
2023/04/05 04:11:35;;;;;;;4.20;2.60;;;0.20;99.90;;;0.84;100.00;98671.03;4976802;28;20479;-76
2023/04/05 04:14:05;;;;;;;2.40;2.20;;;0.20;99.90;;;0.83;100.00;98671.16;4976590;28;20504;-75
2023/04/05 04:16:36;;;;;;;3.83;2.67;;;0.20;99.90;;;0.84;100.00;98672.78;4976853;28;20901;-75
2023/04/05 04:19:06;;;;;;;10.10;2.33;;;0.20;99.90;;;0.82;100.00;98672.06;4978151;28;20472;-75
2023/04/05 04:21:38;;;;;;;3.20;2.10;;;0.10;99.90;;;0.85;100.00;98682.16;4977599;28;20464;-76
2023/04/05 04:24:07;;;;;;;7.03;2.87;;;0.10;99.90;;;0.81;100.00;98675.56;4978100;28;20475;-73
2023/04/05 04:26:39;;;;;;;2.83;2.57;;;0.20;99.90;;;0.79;100.00;98677.44;4978224;28;20481;-75
2023/04/05 04:29:11;;;;;;;3.20;2.77;;;0.10;99.90;;;0.78;100.00;98675.78;4976792;28;20936;-76
2023/04/05 04:31:44;;;;;;;3.87;2.80;;;0.10;99.90;;;0.74;100.00;98679.53;4977157;28;20476;-76
2023/04/05 04:34:17;;;;;;;6.13;4.50;;;0.10;99.90;;;0.69;100.00;98676.47;4980581;28;20483;-76
2023/04/05 04:36:59;;;;;;;8.80;3.90;;;0.10;99.90;;;0.69;100.00;98681.63;4979410;28;20464;-75
2023/04/05 04:39:30;;;;;;;7.60;4.27;;;0.10;99.90;;;0.70;100.00;98680.66;4980982;28;20529;-76
2023/04/05 04:42:00;;;;;;;9.80;3.47;;;0.10;99.90;;;0.58;100.00;98679.81;4980287;28;20479;-76
2023/04/05 04:44:30;;;;;;;6.50;3.07;;;0.00;99.90;;;0.52;100.00;98684.56;4980391;28;21009;-76
2023/04/05 04:47:01;;;;;;;4.90;3.43;;;0.00;99.90;;;0.52;100.00;98680.25;4978501;28;20475;-76
2023/04/05 04:49:31;;;;;;;3.70;2.77;;;-0.10;99.90;;;0.42;100.00;98677.47;4979792;28;20556;-76
2023/04/05 04:52:03;;;;;;;5.20;3.30;;;-0.10;99.90;;;0.40;100.00;98676.78;4978121;28;20528;-76
2023/04/05 04:54:33;;;;;;;6.03;3.77;;;-0.10;99.90;;;0.39;100.00;98685.41;4981942;28;20475;-76
2023/04/05 04:57:02;;;;;;;7.00;3.87;;;-0.10;99.90;;;0.38;100.00;98683.75;4978008;28;20464;-76
2023/04/05 04:59:32;;;;;;;5.13;3.17;;;-0.20;99.90;;;0.36;100.00;98689.94;4981480;28;20453;-76
2023/04/05 05:02:04;;;;;;;6.37;3.93;;;-0.20;99.90;;;0.28;100.00;98681.94;4979799;28;20465;-76
2023/04/05 05:04:35;;;;;;;4.30;3.00;;;-0.20;99.90;;;0.23;100.00;98684.84;4978891;28;20537;-76
2023/04/05 05:07:05;;;;;;;5.10;3.20;;;-0.20;99.90;;;0.22;100.00;98687.50;4979385;28;20547;-76
2023/04/05 05:09:35;;;;;;;5.20;3.10;;;-0.20;99.90;;;0.13;100.00;98681.28;4980941;28;20489;-77
2023/04/05 05:12:07;;;;;;;7.60;3.07;;;-0.20;99.90;;;0.13;100.00;98683.84;4979115;28;20460;-76
2023/04/05 05:14:37;;;;;;;3.90;3.07;;;-0.30;99.90;;;0.09;100.00;98679.84;4981615;28;20471;-76
2023/04/05 05:17:08;;;;;;;6.50;3.73;;;-0.40;99.90;;;0.13;100.00;98681.28;4978037;28;20479;-76
2023/04/05 05:19:38;;;;;;;5.17;3.53;;;-0.40;99.90;;;0.10;100.00;98678.94;4980716;28;21210;-76
2023/04/05 05:22:08;;;;;;;5.20;3.60;;;-0.40;99.90;;;0.08;100.00;98683.34;4979746;28;20457;-76
2023/04/05 05:24:37;;;;;;;6.30;4.07;;;-0.40;99.90;;;0.09;100.00;98686.72;4978861;28;20475;-76
2023/04/05 05:27:06;;;;;;;6.63;3.37;;;-0.40;99.90;;;0.10;100.00;98678.94;4978799;28;21058;-76
2023/04/05 05:29:36;;;;;;;5.07;3.40;;;-0.40;99.90;;;0.10;100.00;98688.38;4978180;28;20921;-76
2023/04/05 05:32:13;;;;;;;4.80;3.23;;;-0.40;99.90;;;0.10;100.00;98689.22;4978803;28;20470;-76
2023/04/05 05:34:43;;;;;;;10.63;3.80;;;-0.40;99.90;;;0.10;100.00;98686.63;4978619;28;21232;-76
2023/04/05 05:37:15;;;;;;;5.57;3.53;;;-0.30;99.90;;;0.13;100.00;98686.41;4978979;28;20475;-76
2023/04/05 05:39:45;;;;;;;5.03;3.10;;;-0.40;99.90;;;0.11;100.00;98690.84;4976858;28;20459;-76
2023/04/05 05:42:15;;;;;;;6.13;3.40;;;-0.40;99.90;;;0.14;100.00;98684.69;4978789;28;20475;-76
2023/04/05 05:44:45;;;;;;;4.70;3.00;;;-0.40;99.90;;;0.18;100.00;98684.34;4980055;28;20463;-76
2023/04/05 05:47:15;;;;;;;7.30;3.50;;;-0.40;99.90;;;0.19;100.00;98680.84;4977703;28;20468;-76
2023/04/05 05:49:48;;;;;;;4.90;3.47;;;-0.40;99.90;;;0.22;100.00;98683.19;4979544;28;20576;-76
2023/04/05 05:52:18;;;;;;;2.70;2.50;;;-0.40;99.90;;;0.26;100.00;98687.22;4978021;28;20982;-77
2023/04/05 05:54:48;;;;;;;2.60;2.40;;;-0.30;99.90;;;0.30;100.00;98691.22;4978775;28;20556;-76
2023/04/05 05:57:18;;;;;;;3.97;2.87;;;-0.30;99.90;;;0.34;100.00;98684.94;4977237;28;20468;-76
2023/04/05 05:59:47;;;;;;;5.03;3.33;;;-0.20;99.90;;;0.38;100.00;98688.91;4979899;28;20856;-76
2023/04/05 06:02:19;;;;;;;9.53;3.37;;;-0.30;99.90;;;0.42;100.00;98692.09;4978182;28;20484;-76
2023/04/05 06:04:49;;;;;;;3.83;2.90;;;-0.30;99.90;;;0.41;100.00;98693.88;4977608;28;21042;-75
2023/04/05 06:07:21;;;;;;;4.83;2.97;;;-0.20;99.90;;;0.40;100.00;98699.94;4978919;28;20464;-76
2023/04/05 06:09:51;;;;;;;6.03;3.67;;;-0.10;99.90;;;0.40;100.00;98697.34;4979320;28;20493;-76
2023/04/05 06:12:21;;;;;;;4.00;2.80;;;-0.20;99.90;;;0.46;100.00;98702.06;4980428;28;20977;-76
2023/04/05 06:14:53;;;;;;;10.20;3.80;;;-0.20;99.90;;;0.49;100.00;98691.56;4977604;28;20469;-76
2023/04/05 06:17:25;;;;;;;5.00;3.33;;;-0.20;99.90;;;0.50;100.00;98693.22;4976941;28;20484;-75
2023/04/05 06:19:54;;;;;;;5.60;3.47;;;0.00;99.90;;;0.52;100.00;98699.06;4975827;28;20486;-76
2023/04/05 06:22:24;;;;;;;8.47;4.30;;;-0.10;99.90;;;0.56;100.00;98697.09;4974059;28;20473;-76
2023/04/05 06:24:53;;;;;;;7.63;3.50;;;0.00;99.90;;;0.59;100.00;98702.00;4975985;28;20469;-76
2023/04/05 06:27:24;;;;;;;9.93;4.00;;;-0.10;99.90;;;0.61;100.00;98700.16;4975984;28;20481;-75
2023/04/05 06:29:54;;;;;;;7.80;3.73;;;0.00;99.90;;;0.65;100.00;98695.63;4976191;28;20491;-76
2023/04/05 06:32:25;;;;;;;5.37;4.07;;;0.10;99.90;;;0.70;100.00;98685.81;4975208;28;20525;-76
2023/04/05 06:34:54;;;;;;;7.80;3.50;;;0.10;99.90;;;0.69;100.00;98689.34;4976041;28;20464;-76
2023/04/05 06:37:25;;;;;;;4.10;3.13;;;0.10;99.90;;;0.69;100.00;98690.16;4978756;28;20466;-76
2023/04/05 06:39:55;;;;;;;7.10;3.80;;;0.20;99.90;;;0.73;100.00;98690.75;4976684;28;20525;-76
2023/04/05 06:42:24;;;;;;;7.33;3.30;;;0.20;99.90;;;0.76;100.00;98687.97;4976379;28;20574;-76
2023/04/05 06:44:57;;;;;;;6.90;3.80;;;0.20;99.90;;;0.79;100.00;98687.75;4978262;28;20440;-76
2023/04/05 06:47:28;;;;;;;4.27;3.30;;;0.20;99.90;;;0.86;100.00;98686.38;4978378;28;20502;-77
2023/04/05 06:49:58;;;;;;;7.33;4.40;;;0.20;99.90;;;0.87;100.00;98681.09;4977387;28;21494;-76
2023/04/05 06:52:28;;;;;;;3.40;3.00;;;0.30;99.90;;;0.93;100.00;98679.84;4975899;28;20515;-76
2023/04/05 06:54:58;;;;;;;4.90;3.53;;;0.40;99.90;;;0.96;100.00;98679.63;4979165;28;20530;-76
2023/04/05 06:57:28;;;;;;;5.20;3.57;;;0.40;99.90;;;1.00;100.00;98675.91;4978884;28;20944;-76
2023/04/05 06:59:57;;;;;;;7.43;4.07;;;0.40;99.90;;;1.04;100.00;98673.94;4976579;28;20464;-76
2023/04/05 07:02:29;;;;;;;8.73;3.80;;;0.40;99.90;;;1.09;100.00;98670.06;4979209;28;20511;-76
2023/04/05 07:05:03;;;;;;;8.50;4.00;;;0.50;99.90;;;1.14;100.00;98674.88;4979912;28;20497;-76
2023/04/05 07:07:34;;;;;;;6.77;4.20;;;0.50;99.90;;;1.19;100.00;98676.19;4976948;28;20470;-76
2023/04/05 07:10:04;;;;;;;5.30;4.47;;;0.60;99.90;;;1.25;100.00;98682.66;4977340;28;20887;-76
2023/04/05 07:12:32;;;;;;;6.33;4.70;;;0.60;99.90;;;1.31;100.00;98680.44;4978891;28;20550;-76
2023/04/05 07:15:01;;;;;;;5.60;4.60;;;0.60;99.90;;;1.36;100.00;98673.19;4977365;28;20497;-76
2023/04/05 07:17:31;;;;;;;6.20;4.40;;;0.70;99.90;;;1.42;100.00;98672.72;4976788;28;20560;-76
2023/04/05 07:20:00;;;;;;;7.70;4.23;;;0.80;99.90;;;1.48;100.00;98674.84;4976696;28;20579;-76
2023/04/05 07:22:28;;;;;;;12.00;4.03;;;0.90;99.90;;;1.52;100.00;98673.69;4975980;28;20530;-76
2023/04/05 07:24:57;;;;;;;8.80;4.27;;;0.90;99.90;;;1.56;100.00;98671.72;4974534;28;20522;-76
2023/04/05 07:27:25;;;;;;;5.83;4.20;;;1.00;99.90;;;1.62;100.00;98673.00;4976618;28;20548;-76
2023/04/05 07:29:54;;;;;;;8.37;4.10;;;1.00;99.90;;;1.68;100.00;98672.53;4979323;28;20486;-76
2023/04/05 07:32:25;;;;;;;4.13;3.70;;;1.10;99.90;;;1.74;100.00;98667.72;4979936;28;21295;-76
2023/04/05 07:34:56;;;;;;;5.67;3.80;;;1.10;99.90;;;1.80;100.00;98669.84;4982537;28;20482;-76
2023/04/05 07:37:26;;;;;;;10.77;4.27;;;1.20;99.90;;;1.85;100.00;98667.72;4980782;28;20548;-76
2023/04/05 07:39:57;;;;;;;9.10;4.47;;;1.20;99.90;;;1.91;100.00;98669.84;4980814;28;20464;-76
2023/04/05 07:42:27;;;;;;;7.10;4.00;;;1.30;99.90;;;1.97;100.00;98663.41;4979861;28;20478;-76
2023/04/05 07:44:57;;;;;;;9.50;4.63;;;1.30;99.90;;;2.03;100.00;98657.75;4981550;28;20607;-76
2023/04/05 07:47:28;;;;;;;7.33;4.10;;;1.30;99.90;;;2.08;100.00;98658.25;4982743;28;20971;-76
2023/04/05 07:49:59;;;;;;;4.00;3.57;;;1.40;99.90;;;2.15;100.00;98651.69;4978623;28;20461;-76
2023/04/05 07:52:28;;;;;;;6.50;4.10;;;1.50;99.90;;;2.21;100.00;98660.69;4980902;28;21007;-76
2023/04/05 07:54:58;;;;;;;4.80;3.50;;;1.50;99.90;;;2.26;100.00;98664.53;4981853;28;20470;-76
2023/04/05 07:57:28;;;;;;;6.30;3.90;;;1.60;99.90;;;2.31;100.00;98662.44;4979144;28;21036;-76
2023/04/05 07:59:58;;;;;;;5.53;3.43;;;1.70;99.90;;;2.37;100.00;98661.13;4984082;28;20469;-76
2023/04/05 08:02:27;;;;;;;11.77;3.70;;;1.70;99.90;;;2.42;100.00;98661.59;4977539;28;20553;-76
2023/04/05 08:04:59;;;;;;;4.87;3.27;;;1.80;99.90;;;2.48;100.00;98654.19;4980082;28;20522;-76
2023/04/05 08:07:30;;;;;;;6.47;3.37;;;1.90;99.90;;;2.56;100.00;98660.50;4980587;28;20466;-76
2023/04/05 08:10:00;;;;;;;3.90;3.10;;;1.90;99.90;;;2.61;100.00;98653.19;4979752;28;20513;-76
2023/04/05 08:12:31;;;;;;;7.97;3.13;;;2.00;99.90;;;2.68;100.00;98651.75;4980517;28;20566;-76
2023/04/05 08:15:01;;;;;;;4.27;3.50;;;2.10;99.90;;;2.79;100.00;98649.16;4980281;28;20537;-76
2023/04/05 08:17:29;;;;;;;4.00;2.80;;;2.20;99.90;;;2.87;100.00;98644.19;4979633;28;20595;-76
2023/04/05 08:20:01;;;;;;;4.90;3.23;;;2.30;99.90;;;2.92;100.00;98639.47;4979226;28;20478;-76
2023/04/05 08:22:31;;;;;;;7.63;3.43;;;2.40;99.90;;;2.99;100.00;98638.00;4978477;28;20558;-76
2023/04/05 08:25:01;;;;;;;4.33;3.03;;;2.50;99.90;;;3.07;100.00;98640.81;4979236;28;21464;-76
2023/04/05 08:27:31;;;;;;;34.47;4.00;;;2.50;99.90;;;3.13;100.00;98642.06;4979958;28;20531;-76
2023/04/05 08:29:59;;;;;;;4.37;3.00;;;2.60;99.90;;;3.19;100.00;98633.81;4978759;28;20469;-76
2023/04/05 08:32:28;;;;;;;13.83;3.57;;;2.60;99.90;;;3.25;100.00;98641.06;4982399;28;21238;-76
2023/04/05 08:34:56;;;;;;;6.73;3.07;;;2.70;99.90;;;3.29;100.00;98629.53;4980741;28;20480;-76
2023/04/05 08:37:26;;;;;;;7.10;3.40;;;2.70;99.90;;;3.35;100.00;98629.84;4980022;28;20542;-76
2023/04/05 08:39:55;;;;;;;5.13;3.23;;;2.90;99.90;;;3.41;100.00;98629.31;4976161;28;20496;-76
2023/04/05 08:42:30;;;;;;;4.37;3.00;;;2.90;99.90;;;3.48;100.00;98627.03;4976921;28;20873;-76
2023/04/05 08:45:03;;;;;;;4.30;2.87;;;2.90;99.90;;;3.52;100.00;98629.25;4980122;28;20464;-76
2023/04/05 08:47:35;;;;;;;7.87;3.20;;;3.00;99.90;;;3.58;100.00;98627.09;4980519;28;20840;-76
2023/04/05 08:50:05;;;;;;;4.40;3.23;;;3.10;99.90;;;3.62;100.00;98629.28;4980284;28;20463;-76
2023/04/05 08:52:41;;;;;;;4.40;3.03;;;3.10;99.90;;;3.69;100.00;98634.75;4979558;28;21054;-76
2023/04/05 08:55:11;;;;;;;4.40;3.00;;;3.10;99.90;;;3.76;100.00;98623.78;4980739;28;20478;-76
2023/04/05 08:57:44;;;;;;;4.83;3.30;;;3.20;99.90;;;3.82;100.00;98625.84;4979221;28;20464;-76
2023/04/05 09:00:15;;;;;;;4.03;2.70;;;3.40;99.90;;;3.86;97.03;98626.41;4978387;28;20464;-76
2023/04/05 09:02:48;;;;;;;4.33;3.03;;;3.40;99.90;;;3.94;95.94;98626.56;4980190;28;20465;-76
2023/04/05 09:05:19;;;;;;;5.30;3.00;;;3.40;99.90;;;3.98;94.68;98623.59;4981274;28;20476;-76
2023/04/05 09:07:53;;;;;;;5.20;3.13;;;3.50;99.60;;;4.02;93.95;98614.63;4980182;28;20470;-76
2023/04/05 09:10:25;;;;;;;8.00;3.50;;;3.50;99.30;;;4.10;93.20;98615.72;4979658;28;20489;-76
2023/04/05 09:12:55;;;;;;;3.10;2.80;;;3.60;99.70;;;4.15;92.56;98618.75;4979935;28;20499;-77
2023/04/05 09:15:26;;;;;;;5.47;2.73;;;3.70;99.50;;;4.19;91.91;98620.94;4978664;28;20498;-76
2023/04/05 09:17:58;;;;;;;6.70;3.33;;;3.70;99.20;;;4.24;91.30;98620.50;4979720;28;20491;-76
2023/04/05 09:20:28;;;;;;;4.03;2.63;;;3.70;99.20;;;4.29;91.50;98618.38;4979547;28;21095;-76
2023/04/05 09:22:59;;;;;;;4.00;2.60;;;3.70;98.90;;;4.35;89.49;98613.47;4977546;28;20554;-76
2023/04/05 09:25:38;;;;;;;5.20;2.90;;;3.90;98.30;;;4.39;87.97;98614.00;4979464;28;20965;-76
2023/04/05 09:28:09;;;;;;;3.63;2.63;;;3.90;97.70;;;4.43;87.66;98610.22;4979835;28;20828;-76
2023/04/05 09:30:46;;;;;;;4.10;3.20;;;3.90;97.90;;;4.46;87.46;98618.53;4978133;28;20470;-76
2023/04/05 09:33:21;;;;;;;4.50;2.90;;;3.90;98.00;;;4.50;86.78;98616.50;4978570;28;20491;-76
2023/04/05 09:35:51;;;;;;;5.10;2.77;;;4.00;97.70;;;4.56;86.15;98608.19;4980491;28;20960;-76
2023/04/05 09:38:46;;;;;;;5.00;2.60;;;4.00;97.50;;;4.61;85.40;98610.38;4979333;28;20466;-76
2023/04/05 09:41:16;;;;;;;3.57;3.07;;;4.10;97.30;;;4.66;82.98;98608.19;4979218;28;20526;-76
2023/04/05 09:43:46;;;;;;;5.27;3.00;;;4.20;96.90;;;4.74;81.42;98618.69;4978210;28;20963;-76
2023/04/05 09:46:32;;;;;;;10.23;3.57;;;4.30;96.50;;;4.78;80.68;98610.50;4978457;28;20494;-76
2023/04/05 09:49:02;;;;;;;3.40;2.70;;;4.30;96.30;;;4.83;79.80;98610.09;4978888;28;20482;-76
2023/04/05 09:51:36;;;;;;;4.27;2.80;;;4.40;96.30;;;4.86;80.09;98610.63;4977351;28;20536;-76
2023/04/05 09:54:10;;;;;;;8.53;3.17;;;4.40;96.30;;;4.89;78.99;98604.38;4975563;28;20476;-76
2023/04/05 09:56:53;;;;;;;6.10;2.80;;;4.40;96.10;;;4.92;77.29;98604.09;4975875;28;21028;-76
2023/04/05 09:59:23;;;;;;;6.27;3.13;;;4.30;95.30;;;4.98;77.19;98593.16;4978656;28;20454;-76
2023/04/05 10:01:53;;;;;;;5.33;3.00;;;4.40;95.80;;;5.02;77.42;98592.75;4975459;28;20946;-76
2023/04/05 10:04:25;;;;;;;4.83;2.73;;;4.50;96.00;;;5.07;76.24;98592.34;4976667;28;20488;-76
2023/04/05 10:06:55;;;;;;;12.70;2.50;;;4.60;95.90;;;5.14;76.15;98593.41;4976108;28;20553;-76
2023/04/05 10:09:28;;;;;;;3.17;2.67;;;4.70;95.80;;;5.19;74.88;98588.63;4977132;28;20463;-76
2023/04/05 10:11:58;;;;;;;3.03;2.40;;;4.70;95.40;;;5.25;74.50;98585.47;4974439;28;20598;-76
2023/04/05 10:14:28;;;;;;;3.80;3.10;;;4.80;95.50;;;5.35;75.15;98581.09;4976065;28;20492;-76
2023/04/05 10:17:10;;;;;;;5.23;2.40;;;4.90;95.70;;;5.43;74.91;98591.59;4978482;28;20553;-76
2023/04/05 10:20:03;;;;;;;4.47;2.50;;;5.00;95.20;;;5.44;72.03;98587.22;4978631;28;20528;-76
2023/04/05 10:22:57;;;;;;;3.57;2.63;;;4.90;94.50;;;5.47;72.86;98585.16;4978845;28;20486;-76
2023/04/05 10:25:46;;;;;;;2.50;2.30;;;4.90;95.10;;;5.50;73.54;98579.69;4978775;28;20469;-76
2023/04/05 10:28:30;;;;;;;3.27;2.50;;;4.90;95.10;;;5.56;71.30;98584.28;4980453;28;20473;-76
2023/04/05 10:31:11;;;;;;;5.43;2.80;;;5.10;94.20;;;5.56;69.92;98579.09;4978141;28;20571;-76
2023/04/05 10:33:46;;;;;;;4.10;2.67;;;5.10;94.10;;;5.61;69.55;98576.09;4978312;28;20494;-76
2023/04/05 10:36:27;;;;;;;6.60;2.83;;;5.20;94.40;;;5.64;69.33;98580.19;4980134;28;20472;-76
2023/04/05 10:39:04;;;;;;;4.93;2.43;;;5.20;94.00;;;5.68;69.72;98565.97;4978241;28;20511;-76
2023/04/05 10:41:40;;;;;;;4.10;2.43;;;5.20;94.40;;;5.70;68.95;98567.44;4980707;28;20858;-76
2023/04/05 10:44:11;;;;;;;3.87;2.73;;;5.20;93.70;;;5.75;68.45;98556.66;4978337;28;20472;-76